createdAt,value
2017-12-29T00:01:04.128Z,0.00
2017-12-29T00:02:04.044Z,0.00
2017-12-29T00:03:56.451Z,0.00
2017-12-29T00:04:55.899Z,0.00
2017-12-29T00:06:47.737Z,0.00
2017-12-29T00:07:47.659Z,0.00
2017-12-29T00:09:39.451Z,0.00
2017-12-29T00:10:39.384Z,0.00
2017-12-29T00:12:31.157Z,0.00
2017-12-29T00:13:31.072Z,0.00
2017-12-29T00:15:22.833Z,0.00
2017-12-29T00:16:22.743Z,0.00
2017-12-29T00:18:14.503Z,0.00
2017-12-29T00:19:14.414Z,0.00
2017-12-29T00:21:06.160Z,0.00
2017-12-29T00:22:06.086Z,0.00
2017-12-29T00:23:57.829Z,0.00
2017-12-29T00:24:57.839Z,0.00
2017-12-29T00:26:49.584Z,0.00
2017-12-29T00:27:49.510Z,0.00
2017-12-29T00:29:41.335Z,0.00
2017-12-29T00:30:41.280Z,0.00
2017-12-29T00:32:33.035Z,0.00
2017-12-29T00:33:32.998Z,0.00
2017-12-29T00:35:24.815Z,0.00
2017-12-29T00:36:24.736Z,0.00
2017-12-29T00:38:16.491Z,0.00
2017-12-29T00:39:16.407Z,0.00
2017-12-29T00:41:08.320Z,0.00
2017-12-29T00:42:08.121Z,0.00
2017-12-29T00:43:59.853Z,0.00
2017-12-29T00:44:59.787Z,0.00
2017-12-29T00:46:51.537Z,0.00
2017-12-29T00:47:51.469Z,0.00
2017-12-29T00:49:43.223Z,0.00
2017-12-29T00:50:43.142Z,0.00
2017-12-29T00:52:34.944Z,0.00
2017-12-29T00:53:34.880Z,0.00
2017-12-29T00:55:26.619Z,0.00
2017-12-29T00:56:26.557Z,0.00
2017-12-29T00:58:18.322Z,0.00
2017-12-29T00:59:18.231Z,0.00
2017-12-29T01:01:09.971Z,0.00
2017-12-29T01:02:09.911Z,0.00
2017-12-29T01:04:01.648Z,0.00
2017-12-29T01:05:01.651Z,0.00
2017-12-29T01:06:53.376Z,0.00
2017-12-29T01:07:53.294Z,0.00
2017-12-29T01:09:45.070Z,0.00
2017-12-29T01:10:44.998Z,0.00
2017-12-29T01:12:36.765Z,0.00
2017-12-29T01:13:36.694Z,0.00
2017-12-29T01:15:28.447Z,0.00
2017-12-29T01:16:28.365Z,0.00
2017-12-29T01:18:20.174Z,0.00
2017-12-29T01:19:20.098Z,0.00
2017-12-29T01:21:11.836Z,0.00
2017-12-29T01:22:11.775Z,0.00
2017-12-29T01:24:03.525Z,0.00
2017-12-29T01:25:03.449Z,0.00
2017-12-29T01:26:55.224Z,0.00
2017-12-29T01:27:55.138Z,0.00
2017-12-29T01:29:46.973Z,0.00
2017-12-29T01:30:46.897Z,0.00
2017-12-29T01:32:38.651Z,0.00
2017-12-29T01:33:38.570Z,0.00
2017-12-29T01:35:30.324Z,0.00
2017-12-29T01:36:30.249Z,0.00
2017-12-29T01:38:22.005Z,0.00
2017-12-29T01:39:22.002Z,0.00
2017-12-29T01:41:13.732Z,0.00
2017-12-29T01:42:13.657Z,0.00
2017-12-29T01:44:05.416Z,0.00
2017-12-29T01:45:05.324Z,0.00
2017-12-29T01:46:57.058Z,0.00
2017-12-29T01:47:56.991Z,0.00
2017-12-29T01:49:48.768Z,0.00
2017-12-29T01:50:48.678Z,0.00
2017-12-29T01:52:40.471Z,0.00
2017-12-29T01:53:40.497Z,0.00
2017-12-29T01:55:32.207Z,0.00
2017-12-29T01:56:32.171Z,0.00
2017-12-29T01:58:23.949Z,0.00
2017-12-29T01:59:23.856Z,0.00
2017-12-29T02:01:15.700Z,0.00
2017-12-29T02:02:15.597Z,0.00
2017-12-29T02:04:07.271Z,0.00
2017-12-29T02:05:07.235Z,0.00
2017-12-29T02:06:59.036Z,0.00
2017-12-29T02:07:58.963Z,0.00
2017-12-29T02:09:50.852Z,0.00
2017-12-29T02:10:50.767Z,0.00
2017-12-29T02:12:42.562Z,0.00
2017-12-29T02:13:42.484Z,0.00
2017-12-29T02:15:34.346Z,0.00
2017-12-29T02:16:34.212Z,0.00
2017-12-29T02:18:26.083Z,0.00
2017-12-29T02:19:25.939Z,0.00
2017-12-29T02:21:17.749Z,0.00
2017-12-29T02:22:17.701Z,0.00
2017-12-29T02:24:09.530Z,0.00
2017-12-29T02:25:09.407Z,0.00
2017-12-29T02:27:01.192Z,0.00
2017-12-29T02:28:01.115Z,0.00
2017-12-29T02:29:52.946Z,0.00
2017-12-29T02:30:52.840Z,0.00
2017-12-29T02:32:44.643Z,0.00
2017-12-29T02:33:44.569Z,0.00
2017-12-29T02:35:36.302Z,0.00
2017-12-29T02:36:36.236Z,0.00
2017-12-29T02:38:27.998Z,0.00
2017-12-29T02:39:27.921Z,0.00
2017-12-29T02:41:19.711Z,0.00
2017-12-29T02:42:19.646Z,0.00
2017-12-29T02:44:11.542Z,0.00
2017-12-29T02:45:11.465Z,0.00
2017-12-29T02:47:03.165Z,0.00
2017-12-29T02:48:03.097Z,0.00
2017-12-29T02:49:54.861Z,0.00
2017-12-29T02:50:54.769Z,0.00
2017-12-29T02:52:46.684Z,0.00
2017-12-29T02:53:46.467Z,0.00
2017-12-29T02:55:38.240Z,0.00
2017-12-29T02:56:38.172Z,0.00
2017-12-29T02:58:30.062Z,0.00
2017-12-29T02:59:29.915Z,0.00
2017-12-29T03:01:21.789Z,0.00
2017-12-29T03:02:21.681Z,0.00
2017-12-29T03:04:13.434Z,0.00
2017-12-29T03:05:13.368Z,0.00
2017-12-29T03:07:05.315Z,0.00
2017-12-29T03:08:05.209Z,0.00
2017-12-29T03:09:56.980Z,0.00
2017-12-29T03:10:56.919Z,0.00
2017-12-29T03:12:48.716Z,0.00
2017-12-29T03:13:48.680Z,0.00
2017-12-29T03:15:40.643Z,0.00
2017-12-29T03:16:40.458Z,0.00
2017-12-29T03:18:32.268Z,0.00
2017-12-29T03:19:32.255Z,0.00
2017-12-29T03:21:24.035Z,0.00
2017-12-29T03:22:23.982Z,0.00
2017-12-29T03:24:15.820Z,0.00
2017-12-29T03:25:15.728Z,0.00
2017-12-29T03:27:07.496Z,0.00
2017-12-29T03:28:07.393Z,0.00
2017-12-29T03:29:59.182Z,0.00
2017-12-29T03:30:59.134Z,0.00
2017-12-29T03:32:50.897Z,0.00
2017-12-29T03:33:50.828Z,0.00
2017-12-29T03:35:42.718Z,0.00
2017-12-29T03:36:42.598Z,0.00
2017-12-29T03:38:34.513Z,0.00
2017-12-29T03:39:34.410Z,0.00
2017-12-29T03:41:26.181Z,0.00
2017-12-29T03:42:26.161Z,0.00
2017-12-29T03:44:17.901Z,0.00
2017-12-29T03:45:17.773Z,0.00
2017-12-29T03:47:09.529Z,0.00
2017-12-29T03:48:09.466Z,0.00
2017-12-29T03:50:01.329Z,0.00
2017-12-29T03:51:01.209Z,0.00
2017-12-29T03:52:53.015Z,0.00
2017-12-29T03:53:52.927Z,0.00
2017-12-29T03:55:44.695Z,0.00
2017-12-29T03:56:44.627Z,0.00
2017-12-29T03:58:36.452Z,0.00
2017-12-29T03:59:36.328Z,0.00
2017-12-29T04:01:28.305Z,0.00
2017-12-29T04:02:28.079Z,0.00
2017-12-29T04:04:19.911Z,0.00
2017-12-29T04:05:19.837Z,0.00
2017-12-29T04:07:11.687Z,0.00
2017-12-29T04:08:11.541Z,0.00
2017-12-29T04:10:03.404Z,0.00
2017-12-29T04:11:03.310Z,0.00
2017-12-29T04:12:55.205Z,0.00
2017-12-29T04:13:55.183Z,0.00
2017-12-29T04:15:46.910Z,0.00
2017-12-29T04:16:46.862Z,0.00
2017-12-29T04:18:38.695Z,0.00
2017-12-29T04:19:38.587Z,0.00
2017-12-29T04:21:30.433Z,0.00
2017-12-29T04:22:30.369Z,0.00
2017-12-29T04:24:22.284Z,0.00
2017-12-29T04:25:22.168Z,0.00
2017-12-29T04:27:13.898Z,0.00
2017-12-29T04:28:13.855Z,0.00
2017-12-29T04:30:05.721Z,0.00
2017-12-29T04:31:05.622Z,0.00
2017-12-29T04:32:57.484Z,0.00
2017-12-29T04:33:57.385Z,0.00
2017-12-29T04:35:49.267Z,0.00
2017-12-29T04:36:49.157Z,0.00
2017-12-29T04:38:40.993Z,0.00
2017-12-29T04:39:40.878Z,0.00
2017-12-29T04:41:32.824Z,0.00
2017-12-29T04:42:32.737Z,0.00
2017-12-29T04:44:24.506Z,0.00
2017-12-29T04:45:24.525Z,0.00
2017-12-29T04:47:16.266Z,0.00
2017-12-29T04:48:16.173Z,0.00
2017-12-29T04:50:08.203Z,0.00
2017-12-29T04:51:08.071Z,0.00
2017-12-29T04:52:59.872Z,0.00
2017-12-29T04:53:59.805Z,0.00
2017-12-29T04:55:51.771Z,0.00
2017-12-29T04:56:51.632Z,0.00
2017-12-29T04:58:43.577Z,0.00
2017-12-29T04:59:43.350Z,0.00
2017-12-29T05:01:35.744Z,0.00
2017-12-29T05:02:35.047Z,0.00
2017-12-29T05:04:26.851Z,0.00
2017-12-29T05:05:26.783Z,0.00
2017-12-29T05:07:18.698Z,0.00
2017-12-29T05:08:18.511Z,0.00
2017-12-29T05:10:10.326Z,0.00
2017-12-29T05:11:10.251Z,0.00
2017-12-29T05:13:02.044Z,0.00
2017-12-29T05:14:01.949Z,0.00
2017-12-29T05:15:53.789Z,0.00
2017-12-29T05:16:53.693Z,0.00
2017-12-29T05:18:45.552Z,0.00
2017-12-29T05:19:45.425Z,0.00
2017-12-29T05:21:37.213Z,0.00
2017-12-29T05:22:37.131Z,0.00
2017-12-29T05:24:28.960Z,0.00
2017-12-29T05:25:28.863Z,0.00
2017-12-29T05:27:21.344Z,0.00
2017-12-29T05:28:20.688Z,0.00
2017-12-29T05:30:12.708Z,0.00
2017-12-29T05:31:12.621Z,0.00
2017-12-29T05:33:04.491Z,0.00
2017-12-29T05:34:04.381Z,0.00
2017-12-29T05:35:56.266Z,0.00
2017-12-29T05:36:56.192Z,0.00
2017-12-29T05:38:48.009Z,0.00
2017-12-29T05:39:47.906Z,0.00
2017-12-29T05:41:39.752Z,0.00
2017-12-29T05:42:39.728Z,0.00
2017-12-29T05:44:31.521Z,0.00
2017-12-29T05:45:31.588Z,0.00
2017-12-29T05:47:23.361Z,0.00
2017-12-29T05:48:23.213Z,0.00
2017-12-29T05:50:15.167Z,0.00
2017-12-29T05:51:15.124Z,0.00
2017-12-29T05:53:07.020Z,0.00
2017-12-29T05:54:06.969Z,0.00
2017-12-29T05:55:58.752Z,0.00
2017-12-29T05:56:58.807Z,0.00
2017-12-29T05:58:50.538Z,0.00
2017-12-29T05:59:50.505Z,0.00
2017-12-29T06:01:42.191Z,0.00
2017-12-29T06:02:42.116Z,0.00
2017-12-29T06:04:33.973Z,0.00
2017-12-29T06:05:33.930Z,0.00
2017-12-29T06:07:25.651Z,0.00
2017-12-29T06:08:25.609Z,0.00
2017-12-29T06:10:18.034Z,0.00
2017-12-29T06:11:17.318Z,0.00
2017-12-29T06:13:09.193Z,0.00
2017-12-29T06:14:09.160Z,0.00
2017-12-29T06:16:01.000Z,0.00
2017-12-29T06:17:00.876Z,0.00
2017-12-29T06:18:53.261Z,0.00
2017-12-29T06:19:52.537Z,0.00
2017-12-29T06:21:44.302Z,0.00
2017-12-29T06:22:44.254Z,0.00
2017-12-29T06:24:36.178Z,0.00
2017-12-29T06:25:35.981Z,0.00
2017-12-29T06:27:27.707Z,0.00
2017-12-29T06:28:27.701Z,0.00
2017-12-29T06:30:19.442Z,0.00
2017-12-29T06:31:19.345Z,0.00
2017-12-29T06:33:11.251Z,0.00
2017-12-29T06:34:11.133Z,0.00
2017-12-29T06:36:02.918Z,0.00
2017-12-29T06:37:02.831Z,0.00
2017-12-29T06:38:54.768Z,0.00
2017-12-29T06:39:54.608Z,0.00
2017-12-29T06:41:46.439Z,0.00
2017-12-29T06:42:46.425Z,0.00
2017-12-29T06:44:38.155Z,0.00
2017-12-29T06:45:38.068Z,0.00
2017-12-29T06:47:30.009Z,0.00
2017-12-29T06:48:29.965Z,0.00
2017-12-29T06:50:21.780Z,0.00
2017-12-29T06:51:21.743Z,0.00
2017-12-29T06:53:13.601Z,0.00
2017-12-29T06:54:13.464Z,0.00
2017-12-29T06:56:05.209Z,0.00
2017-12-29T06:57:05.174Z,0.00
2017-12-29T06:58:56.903Z,0.00
2017-12-29T06:59:56.850Z,0.00
2017-12-29T07:01:48.702Z,0.00
2017-12-29T07:02:48.635Z,0.00
2017-12-29T07:04:40.386Z,0.00
2017-12-29T07:05:40.337Z,0.00
2017-12-29T07:07:32.103Z,0.00
2017-12-29T07:08:32.051Z,0.00
2017-12-29T07:10:23.853Z,0.00
2017-12-29T07:11:23.793Z,5.63
2017-12-29T07:13:15.584Z,5.63
2017-12-29T07:14:15.539Z,5.63
2017-12-29T07:16:07.258Z,5.63
2017-12-29T07:17:07.176Z,5.63
2017-12-29T07:18:58.961Z,5.63
2017-12-29T07:19:58.865Z,5.63
2017-12-29T07:21:50.675Z,5.63
2017-12-29T07:22:50.644Z,5.63
2017-12-29T07:24:42.347Z,5.63
2017-12-29T07:25:42.282Z,5.63
2017-12-29T07:27:34.387Z,5.63
2017-12-29T07:28:34.166Z,5.63
2017-12-29T07:30:26.580Z,5.63
2017-12-29T07:31:25.828Z,5.63
2017-12-29T07:33:17.725Z,5.63
2017-12-29T07:34:17.591Z,5.63
2017-12-29T07:36:09.559Z,5.63
2017-12-29T07:37:09.458Z,5.63
2017-12-29T07:39:01.220Z,5.63
2017-12-29T07:40:01.146Z,5.63
2017-12-29T07:41:52.988Z,11.25
2017-12-29T07:42:52.871Z,11.25
2017-12-29T07:44:44.656Z,16.88
2017-12-29T07:45:44.612Z,16.88
2017-12-29T07:47:36.362Z,16.88
2017-12-29T07:48:36.298Z,16.88
2017-12-29T07:50:28.204Z,22.50
2017-12-29T07:51:28.066Z,22.50
2017-12-29T07:53:20.025Z,22.50
2017-12-29T07:54:19.911Z,22.50
2017-12-29T07:56:11.814Z,22.50
2017-12-29T07:57:11.649Z,22.50
2017-12-29T07:59:03.380Z,22.50
2017-12-29T08:00:03.310Z,28.13
2017-12-29T08:01:55.247Z,28.13
2017-12-29T08:02:55.047Z,33.75
2017-12-29T08:04:46.789Z,33.75
2017-12-29T08:05:46.721Z,33.75
2017-12-29T08:07:38.608Z,33.75
2017-12-29T08:08:38.623Z,33.75
2017-12-29T08:10:30.296Z,33.75
2017-12-29T08:11:30.216Z,33.75
2017-12-29T08:13:22.028Z,39.38
2017-12-29T08:14:21.940Z,45.00
2017-12-29T08:16:13.724Z,45.00
2017-12-29T08:17:13.622Z,50.63
2017-12-29T08:19:05.438Z,39.38
2017-12-29T08:20:05.323Z,45.00
2017-12-29T08:21:57.120Z,50.63
2017-12-29T08:22:57.019Z,50.63
2017-12-29T08:24:48.816Z,45.00
2017-12-29T08:25:48.717Z,45.00
2017-12-29T08:27:40.526Z,45.00
2017-12-29T08:28:40.461Z,33.75
2017-12-29T08:30:32.318Z,33.75
2017-12-29T08:31:32.261Z,39.38
2017-12-29T08:33:24.048Z,33.75
2017-12-29T08:34:23.928Z,28.13
2017-12-29T08:36:15.723Z,28.13
2017-12-29T08:37:15.640Z,28.13
2017-12-29T08:39:07.558Z,28.13
2017-12-29T08:40:07.480Z,28.13
2017-12-29T08:41:59.228Z,28.13
2017-12-29T08:42:59.118Z,28.13
2017-12-29T08:44:50.918Z,22.50
2017-12-29T08:45:50.854Z,28.13
2017-12-29T08:47:42.623Z,28.13
2017-12-29T08:48:42.539Z,33.75
2017-12-29T08:50:34.362Z,28.13
2017-12-29T08:51:34.306Z,33.75
2017-12-29T08:53:26.089Z,39.38
2017-12-29T08:54:26.016Z,39.38
2017-12-29T08:56:17.865Z,39.38
2017-12-29T08:57:17.760Z,39.38
2017-12-29T08:59:09.656Z,45.00
2017-12-29T09:00:09.487Z,39.38
2017-12-29T09:02:01.288Z,50.63
2017-12-29T09:03:01.212Z,45.00
2017-12-29T09:04:53.046Z,56.25
2017-12-29T09:05:52.845Z,67.50
2017-12-29T09:07:44.670Z,73.13
2017-12-29T09:08:44.572Z,73.13
2017-12-29T09:10:36.452Z,90.00
2017-12-29T09:11:36.231Z,90.00
2017-12-29T09:13:28.059Z,78.75
2017-12-29T09:14:28.040Z,73.13
2017-12-29T09:16:19.837Z,73.13
2017-12-29T09:17:19.885Z,67.50
2017-12-29T09:19:11.597Z,84.38
2017-12-29T09:20:11.529Z,84.38
2017-12-29T09:22:03.375Z,84.38
2017-12-29T09:23:03.315Z,90.00
2017-12-29T09:24:55.188Z,90.00
2017-12-29T09:25:55.146Z,95.63
2017-12-29T09:27:47.053Z,106.88
2017-12-29T09:28:46.797Z,129.38
2017-12-29T09:30:38.723Z,123.75
2017-12-29T09:31:38.445Z,118.13
2017-12-29T09:33:30.339Z,95.63
2017-12-29T09:34:30.166Z,101.25
2017-12-29T09:36:22.006Z,118.13
2017-12-29T09:37:21.952Z,112.50
2017-12-29T09:39:15.299Z,135.00
2017-12-29T09:40:13.595Z,129.38
2017-12-29T09:42:05.398Z,135.00
2017-12-29T09:43:05.367Z,157.50
2017-12-29T09:44:57.174Z,191.25
2017-12-29T09:45:57.160Z,174.38
2017-12-29T09:47:48.876Z,140.63
2017-12-29T09:48:48.797Z,157.50
2017-12-29T09:50:40.627Z,112.50
2017-12-29T09:51:40.523Z,106.88
2017-12-29T09:53:32.298Z,129.38
2017-12-29T09:54:32.235Z,129.38
2017-12-29T09:56:24.140Z,106.88
2017-12-29T09:57:24.088Z,118.13
2017-12-29T09:59:15.964Z,129.38
2017-12-29T10:00:15.942Z,151.88
2017-12-29T10:02:07.766Z,157.50
2017-12-29T10:03:07.562Z,123.75
2017-12-29T10:04:59.343Z,95.63
2017-12-29T10:05:59.257Z,90.00
2017-12-29T10:07:51.082Z,90.00
2017-12-29T10:08:51.036Z,95.63
2017-12-29T10:10:42.922Z,140.63
2017-12-29T10:11:42.774Z,129.38
2017-12-29T10:13:34.572Z,123.75
2017-12-29T10:14:34.545Z,112.50
2017-12-29T10:16:26.416Z,129.38
2017-12-29T10:17:26.299Z,129.38
2017-12-29T10:19:18.052Z,118.13
2017-12-29T10:20:18.025Z,123.75
2017-12-29T10:22:09.862Z,129.38
2017-12-29T10:23:09.727Z,123.75
2017-12-29T10:25:01.529Z,118.13
2017-12-29T10:26:01.495Z,112.50
2017-12-29T10:27:53.295Z,101.25
2017-12-29T10:28:53.171Z,95.63
2017-12-29T10:30:45.075Z,106.88
2017-12-29T10:31:45.017Z,112.50
2017-12-29T10:33:36.952Z,112.50
2017-12-29T10:34:36.758Z,118.13
2017-12-29T10:36:28.521Z,123.75
2017-12-29T10:37:28.464Z,129.38
2017-12-29T10:39:20.195Z,135.00
2017-12-29T10:40:20.120Z,140.63
2017-12-29T10:42:11.871Z,151.88
2017-12-29T10:43:11.825Z,157.50
2017-12-29T10:45:03.674Z,163.13
2017-12-29T10:46:03.677Z,168.75
2017-12-29T10:47:55.450Z,163.13
2017-12-29T10:48:55.387Z,163.13
2017-12-29T10:50:47.233Z,157.50
2017-12-29T10:51:47.108Z,163.13
2017-12-29T10:53:39.057Z,157.50
2017-12-29T10:54:38.882Z,157.50
2017-12-29T10:56:30.553Z,168.75
2017-12-29T10:57:30.491Z,151.88
2017-12-29T10:59:22.944Z,151.88
2017-12-29T11:00:22.361Z,146.25
2017-12-29T11:02:14.151Z,135.00
2017-12-29T11:03:13.974Z,140.63
2017-12-29T11:05:05.782Z,151.88
2017-12-29T11:06:05.704Z,157.50
2017-12-29T11:07:57.510Z,151.88
2017-12-29T11:08:57.439Z,151.88
2017-12-29T11:10:49.234Z,163.13
2017-12-29T11:11:49.220Z,168.75
2017-12-29T11:13:41.104Z,185.63
2017-12-29T11:14:40.936Z,196.88
2017-12-29T11:16:32.737Z,202.50
2017-12-29T11:17:32.662Z,202.50
2017-12-29T11:19:24.420Z,208.13
2017-12-29T11:20:24.343Z,208.13
2017-12-29T11:22:16.133Z,208.13
2017-12-29T11:23:16.075Z,208.13
2017-12-29T11:25:07.897Z,225.00
2017-12-29T11:26:07.837Z,225.00
2017-12-29T11:27:59.639Z,230.63
2017-12-29T11:28:59.620Z,230.63
2017-12-29T11:30:51.478Z,236.25
2017-12-29T11:31:51.451Z,236.25
2017-12-29T11:33:43.224Z,241.88
2017-12-29T11:34:43.142Z,247.50
2017-12-29T11:36:34.982Z,264.38
2017-12-29T11:37:34.862Z,247.50
2017-12-29T11:39:26.601Z,253.13
2017-12-29T11:40:26.563Z,247.50
2017-12-29T11:42:18.450Z,264.38
2017-12-29T11:43:18.231Z,270.00
2017-12-29T11:45:10.141Z,270.00
2017-12-29T11:46:09.960Z,270.00
2017-12-29T11:48:01.762Z,253.13
2017-12-29T11:49:01.695Z,236.25
2017-12-29T11:50:53.607Z,225.00
2017-12-29T11:51:53.481Z,208.13
2017-12-29T11:53:45.351Z,196.88
2017-12-29T11:54:45.281Z,185.63
2017-12-29T11:56:37.092Z,168.75
2017-12-29T11:57:37.008Z,168.75
2017-12-29T11:59:28.889Z,168.75
2017-12-29T12:00:28.710Z,191.25
2017-12-29T12:02:20.524Z,213.75
2017-12-29T12:03:20.439Z,208.13
2017-12-29T12:05:12.405Z,196.88
2017-12-29T12:06:12.177Z,191.25
2017-12-29T12:08:03.912Z,174.38
2017-12-29T12:09:03.828Z,174.38
2017-12-29T12:10:55.583Z,191.25
2017-12-29T12:11:55.527Z,196.88
2017-12-29T12:13:47.331Z,180.00
2017-12-29T12:14:47.268Z,168.75
2017-12-29T12:16:39.092Z,157.50
2017-12-29T12:17:38.977Z,157.50
2017-12-29T12:19:30.776Z,157.50
2017-12-29T12:20:30.717Z,140.63
2017-12-29T12:22:23.192Z,146.25
2017-12-29T12:23:22.440Z,146.25
2017-12-29T12:25:14.217Z,140.63
2017-12-29T12:26:14.163Z,140.63
2017-12-29T12:28:05.969Z,140.63
2017-12-29T12:29:05.913Z,140.63
2017-12-29T12:30:57.706Z,129.38
2017-12-29T12:31:57.644Z,135.00
2017-12-29T12:33:49.582Z,140.63
2017-12-29T12:34:49.448Z,151.88
2017-12-29T12:36:41.257Z,135.00
2017-12-29T12:37:41.208Z,151.88
2017-12-29T12:39:33.241Z,140.63
2017-12-29T12:40:33.076Z,146.25
2017-12-29T12:42:24.868Z,146.25
2017-12-29T12:43:24.876Z,146.25
2017-12-29T12:45:16.662Z,157.50
2017-12-29T12:46:16.539Z,157.50
2017-12-29T12:48:08.381Z,146.25
2017-12-29T12:49:08.277Z,129.38
2017-12-29T12:51:00.099Z,129.38
2017-12-29T12:52:00.034Z,129.38
2017-12-29T12:53:51.891Z,140.63
2017-12-29T12:54:51.752Z,140.63
2017-12-29T12:56:44.164Z,146.25
2017-12-29T12:57:43.619Z,140.63
2017-12-29T12:59:35.356Z,140.63
2017-12-29T13:00:35.319Z,146.25
2017-12-29T13:02:27.637Z,123.75
2017-12-29T13:03:27.180Z,129.38
2017-12-29T13:05:19.018Z,129.38
2017-12-29T13:06:19.005Z,129.38
2017-12-29T13:08:10.716Z,129.38
2017-12-29T13:09:10.652Z,129.38
2017-12-29T13:11:02.465Z,129.38
2017-12-29T13:12:02.431Z,129.38
2017-12-29T13:13:54.372Z,123.75
2017-12-29T13:14:54.260Z,123.75
2017-12-29T13:16:46.184Z,123.75
2017-12-29T13:17:46.104Z,123.75
2017-12-29T13:19:37.927Z,123.75
2017-12-29T13:20:37.940Z,118.13
2017-12-29T13:22:29.742Z,118.13
2017-12-29T13:23:29.629Z,118.13
2017-12-29T13:25:21.507Z,118.13
2017-12-29T13:26:21.424Z,118.13
2017-12-29T13:28:13.218Z,112.50
2017-12-29T13:29:13.148Z,112.50
2017-12-29T13:31:05.031Z,112.50
2017-12-29T13:32:04.873Z,112.50
2017-12-29T13:33:56.758Z,112.50
2017-12-29T13:34:56.599Z,112.50
2017-12-29T13:36:48.480Z,106.88
2017-12-29T13:37:48.406Z,106.88
2017-12-29T13:39:40.147Z,106.88
2017-12-29T13:40:40.057Z,106.88
2017-12-29T13:42:31.794Z,101.25
2017-12-29T13:43:31.725Z,101.25
2017-12-29T13:45:23.466Z,101.25
2017-12-29T13:46:23.465Z,95.63
2017-12-29T13:48:15.260Z,95.63
2017-12-29T13:49:15.184Z,95.63
2017-12-29T13:51:06.962Z,90.00
2017-12-29T13:52:06.920Z,90.00
2017-12-29T13:53:58.685Z,90.00
2017-12-29T13:54:58.589Z,90.00
2017-12-29T13:56:50.494Z,84.38
2017-12-29T13:57:50.445Z,84.38
2017-12-29T13:59:42.365Z,84.38
2017-12-29T14:00:42.133Z,78.75
2017-12-29T14:02:34.018Z,78.75
2017-12-29T14:03:34.076Z,78.75
2017-12-29T14:05:25.678Z,73.13
2017-12-29T14:06:25.590Z,67.50
2017-12-29T14:08:17.444Z,73.13
2017-12-29T14:09:17.355Z,61.88
2017-12-29T14:11:09.246Z,67.50
2017-12-29T14:12:09.086Z,67.50
2017-12-29T14:14:01.117Z,61.88
2017-12-29T14:15:00.867Z,61.88
2017-12-29T14:16:52.686Z,61.88
2017-12-29T14:17:52.609Z,56.25
2017-12-29T14:19:44.561Z,56.25
2017-12-29T14:20:44.473Z,56.25
2017-12-29T14:22:36.396Z,50.63
2017-12-29T14:23:36.279Z,50.63
2017-12-29T14:25:28.254Z,50.63
2017-12-29T14:26:28.026Z,45.00
2017-12-29T14:28:19.796Z,45.00
2017-12-29T14:29:19.707Z,45.00
2017-12-29T14:31:11.501Z,39.38
2017-12-29T14:32:11.464Z,39.38
2017-12-29T14:34:03.229Z,39.38
2017-12-29T14:35:03.129Z,33.75
2017-12-29T14:36:55.040Z,33.75
2017-12-29T14:37:54.914Z,33.75
2017-12-29T14:39:47.359Z,28.13
2017-12-29T14:40:46.614Z,28.13
2017-12-29T14:42:38.500Z,28.13
2017-12-29T14:43:38.342Z,22.50
2017-12-29T14:45:30.134Z,22.50
2017-12-29T14:46:30.073Z,22.50
2017-12-29T14:48:21.880Z,16.88
2017-12-29T14:49:21.841Z,16.88
2017-12-29T14:51:13.624Z,16.88
2017-12-29T14:52:13.568Z,16.88
2017-12-29T14:54:05.285Z,11.25
2017-12-29T14:55:05.234Z,11.25
2017-12-29T14:56:57.050Z,11.25
2017-12-29T14:57:56.909Z,11.25
2017-12-29T14:59:48.786Z,5.63
2017-12-29T15:00:48.726Z,5.63
2017-12-29T15:02:40.647Z,5.63
2017-12-29T15:03:40.536Z,5.63
2017-12-29T15:05:32.319Z,5.63
2017-12-29T15:06:32.313Z,5.63
2017-12-29T15:08:24.115Z,0.00
2017-12-29T15:09:24.061Z,0.00
2017-12-29T15:11:15.855Z,0.00
2017-12-29T15:12:15.746Z,0.00
2017-12-29T15:14:07.593Z,0.00
2017-12-29T15:15:07.472Z,0.00
2017-12-29T15:16:59.373Z,0.00
2017-12-29T15:17:59.232Z,0.00
2017-12-29T15:19:51.004Z,0.00
2017-12-29T15:20:50.925Z,0.00
2017-12-29T15:22:42.720Z,0.00
2017-12-29T15:23:42.635Z,0.00
2017-12-29T15:25:34.396Z,0.00
2017-12-29T15:26:34.340Z,0.00
2017-12-29T15:28:26.198Z,0.00
2017-12-29T15:29:26.136Z,0.00
2017-12-29T15:31:17.969Z,0.00
2017-12-29T15:32:17.846Z,0.00
2017-12-29T15:34:09.646Z,0.00
2017-12-29T15:35:09.557Z,0.00
2017-12-29T15:37:01.418Z,0.00
2017-12-29T15:38:01.292Z,0.00
2017-12-29T15:39:53.072Z,0.00
2017-12-29T15:40:53.001Z,0.00
2017-12-29T15:42:44.763Z,0.00
2017-12-29T15:43:44.694Z,0.00
2017-12-29T15:45:36.591Z,0.00
2017-12-29T15:46:36.479Z,0.00
2017-12-29T15:48:28.391Z,0.00
2017-12-29T15:49:28.289Z,0.00
2017-12-29T15:51:20.088Z,0.00
2017-12-29T15:52:19.972Z,0.00
2017-12-29T15:54:11.803Z,0.00
2017-12-29T15:55:11.710Z,0.00
2017-12-29T15:57:03.508Z,0.00
2017-12-29T15:58:03.441Z,0.00
2017-12-29T15:59:55.237Z,0.00
2017-12-29T16:00:55.192Z,0.00
2017-12-29T16:02:47.118Z,0.00
2017-12-29T16:03:47.022Z,0.00
2017-12-29T16:05:38.963Z,0.00
2017-12-29T16:06:38.934Z,0.00
2017-12-29T16:08:30.704Z,0.00
2017-12-29T16:09:30.594Z,0.00
2017-12-29T16:11:22.727Z,0.00
2017-12-29T16:12:22.625Z,0.00
2017-12-29T16:14:14.394Z,0.00
2017-12-29T16:15:14.334Z,0.00
2017-12-29T16:17:06.235Z,0.00
2017-12-29T16:18:06.200Z,0.00
2017-12-29T16:19:57.997Z,0.00
2017-12-29T16:20:57.785Z,0.00
2017-12-29T16:22:50.158Z,0.00
2017-12-29T16:23:49.505Z,0.00
2017-12-29T16:25:41.411Z,0.00
2017-12-29T16:26:41.230Z,0.00
2017-12-29T16:28:33.191Z,0.00
2017-12-29T16:29:32.982Z,0.00
2017-12-29T16:31:24.825Z,0.00
2017-12-29T16:32:24.676Z,0.00
2017-12-29T16:34:16.599Z,0.00
2017-12-29T16:35:16.463Z,0.00
2017-12-29T16:37:08.307Z,0.00
2017-12-29T16:38:08.135Z,0.00
2017-12-29T16:40:00.120Z,0.00
2017-12-29T16:40:59.971Z,0.00
2017-12-29T16:42:51.746Z,0.00
2017-12-29T16:43:51.668Z,0.00
2017-12-29T16:45:44.120Z,0.00
2017-12-29T16:46:43.411Z,0.00
2017-12-29T16:48:35.205Z,0.00
2017-12-29T16:49:35.132Z,0.00
2017-12-29T16:51:26.966Z,0.00
2017-12-29T16:52:26.827Z,0.00
2017-12-29T16:54:18.646Z,0.00
2017-12-29T16:55:18.579Z,0.00
2017-12-29T16:57:10.429Z,0.00
2017-12-29T16:58:10.395Z,0.00
2017-12-29T17:00:02.086Z,0.00
2017-12-29T17:01:02.010Z,0.00
2017-12-29T17:02:53.865Z,0.00
2017-12-29T17:03:53.787Z,0.00
2017-12-29T17:05:45.579Z,0.00
2017-12-29T17:06:45.529Z,0.00
2017-12-29T17:08:37.999Z,0.00
2017-12-29T17:09:37.277Z,0.00
2017-12-29T17:11:29.186Z,0.00
2017-12-29T17:12:29.012Z,0.00
2017-12-29T17:14:20.809Z,0.00
2017-12-29T17:15:20.744Z,0.00
2017-12-29T17:17:12.546Z,0.00
2017-12-29T17:18:12.506Z,0.00
2017-12-29T17:20:04.281Z,0.00
2017-12-29T17:21:04.230Z,0.00
2017-12-29T17:22:56.085Z,0.00
2017-12-29T17:23:55.940Z,0.00
2017-12-29T17:25:47.707Z,0.00
2017-12-29T17:26:47.656Z,0.00
2017-12-29T17:28:39.408Z,0.00
2017-12-29T17:29:39.386Z,0.00
2017-12-29T17:31:31.184Z,0.00
2017-12-29T17:32:31.120Z,0.00
2017-12-29T17:34:22.949Z,0.00
2017-12-29T17:35:22.838Z,0.00
2017-12-29T17:37:14.681Z,0.00
2017-12-29T17:38:14.547Z,0.00
2017-12-29T17:40:06.418Z,0.00
2017-12-29T17:41:06.276Z,0.00
2017-12-29T17:42:58.083Z,0.00
2017-12-29T17:43:58.013Z,0.00
2017-12-29T17:45:49.826Z,0.00
2017-12-29T17:46:49.762Z,0.00
2017-12-29T17:48:41.548Z,0.00
2017-12-29T17:49:41.448Z,0.00
2017-12-29T17:51:33.257Z,0.00
2017-12-29T17:52:33.214Z,0.00
2017-12-29T17:54:25.103Z,0.00
2017-12-29T17:55:24.953Z,0.00
2017-12-29T17:57:16.705Z,0.00
2017-12-29T17:58:16.690Z,0.00
2017-12-29T18:00:08.444Z,0.00
2017-12-29T18:01:08.352Z,0.00
2017-12-29T18:03:00.218Z,0.00
2017-12-29T18:04:00.083Z,0.00
2017-12-29T18:05:51.870Z,0.00
2017-12-29T18:06:51.805Z,0.00
2017-12-29T18:08:43.630Z,0.00
2017-12-29T18:09:43.552Z,0.00
2017-12-29T18:11:35.406Z,0.00
2017-12-29T18:12:35.256Z,0.00
2017-12-29T18:14:27.089Z,0.00
2017-12-29T18:15:26.989Z,0.00
2017-12-29T18:17:18.786Z,0.00
2017-12-29T18:18:18.712Z,0.00
2017-12-29T18:20:10.529Z,0.00
2017-12-29T18:21:10.448Z,0.00
2017-12-29T18:23:02.219Z,0.00
2017-12-29T18:24:02.144Z,0.00
2017-12-29T18:25:54.060Z,0.00
2017-12-29T18:26:53.974Z,0.00
2017-12-29T18:28:45.629Z,0.00
2017-12-29T18:29:45.567Z,0.00
2017-12-29T18:31:37.396Z,0.00
2017-12-29T18:32:37.340Z,0.00
2017-12-29T18:34:29.102Z,0.00
2017-12-29T18:35:29.030Z,0.00
2017-12-29T18:37:20.809Z,0.00
2017-12-29T18:38:20.695Z,0.00
2017-12-29T18:40:12.504Z,0.00